createdAt,value
2017-10-31T00:01:21.950Z,82.50
2017-10-31T00:03:50.072Z,82.50
2017-10-31T00:06:18.281Z,83.30
2017-10-31T00:08:46.414Z,84.20
2017-10-31T00:11:14.568Z,82.20
2017-10-31T00:13:42.728Z,80.30
2017-10-31T00:16:10.883Z,80.00
2017-10-31T00:18:39.068Z,78.50
2017-10-31T00:21:08.004Z,82.20
2017-10-31T00:23:36.268Z,82.10
2017-10-31T00:26:04.438Z,81.50
2017-10-31T00:28:32.580Z,80.80
2017-10-31T00:31:01.542Z,79.80
2017-10-31T00:33:29.754Z,79.70
2017-10-31T00:35:58.671Z,80.20
2017-10-31T00:38:26.877Z,80.20
2017-10-31T00:40:55.060Z,80.30
2017-10-31T00:43:23.190Z,79.40
2017-10-31T00:45:51.331Z,80.20
2017-10-31T00:48:19.656Z,80.50
2017-10-31T00:50:48.508Z,79.90
2017-10-31T00:53:17.466Z,81.00
2017-10-31T00:55:46.377Z,81.00
2017-10-31T00:58:15.516Z,81.80
2017-10-31T01:00:43.669Z,81.70
2017-10-31T01:03:11.801Z,81.50
2017-10-31T01:05:39.993Z,80.50
2017-10-31T01:08:08.941Z,80.60
2017-10-31T01:10:37.069Z,80.50
2017-10-31T01:13:05.203Z,80.40
2017-10-31T01:15:34.197Z,80.30
2017-10-31T01:18:03.384Z,80.20
2017-10-31T01:20:31.529Z,79.60
2017-10-31T01:22:59.734Z,79.70
2017-10-31T01:25:27.913Z,80.30
2017-10-31T01:27:56.625Z,81.50
2017-10-31T01:30:25.505Z,80.50
2017-10-31T01:32:53.722Z,80.40
2017-10-31T01:35:21.879Z,79.80
2017-10-31T01:37:50.030Z,82.40
2017-10-31T01:40:18.937Z,82.40
2017-10-31T01:42:47.113Z,82.40
2017-10-31T01:45:15.243Z,81.70
2017-10-31T01:47:43.478Z,80.70
2017-10-31T01:50:11.653Z,79.90
2017-10-31T01:52:39.798Z,80.10
2017-10-31T01:55:07.936Z,80.90
2017-10-31T01:57:36.075Z,80.20
2017-10-31T02:00:04.276Z,80.70
2017-10-31T02:02:32.441Z,82.00
2017-10-31T02:05:00.558Z,83.30
2017-10-31T02:07:28.766Z,84.50
2017-10-31T02:09:56.894Z,82.90
2017-10-31T02:12:25.313Z,84.30
2017-10-31T02:14:53.700Z,84.60
2017-10-31T02:17:21.829Z,82.00
2017-10-31T02:19:49.974Z,80.70
2017-10-31T02:22:18.101Z,79.40
2017-10-31T02:24:46.254Z,81.00
2017-10-31T02:27:14.383Z,81.20
2017-10-31T02:29:42.545Z,82.60
2017-10-31T02:32:10.797Z,80.90
2017-10-31T02:34:38.915Z,81.50
2017-10-31T02:37:07.138Z,81.30
2017-10-31T02:39:35.465Z,80.00
2017-10-31T02:42:03.584Z,79.60
2017-10-31T02:44:31.732Z,79.30
2017-10-31T02:46:59.929Z,79.00
2017-10-31T02:49:28.063Z,79.80
2017-10-31T02:51:56.234Z,79.50
2017-10-31T02:54:24.385Z,78.50
2017-10-31T02:56:52.544Z,78.80
2017-10-31T02:59:20.713Z,78.50
2017-10-31T03:01:48.944Z,78.10
2017-10-31T03:04:17.878Z,82.20
2017-10-31T03:06:46.007Z,82.20
2017-10-31T03:09:14.639Z,81.00
2017-10-31T03:11:42.808Z,80.40
2017-10-31T03:14:11.708Z,78.70
2017-10-31T03:16:39.828Z,78.60
2017-10-31T03:19:07.980Z,78.90
2017-10-31T03:21:36.933Z,81.20
2017-10-31T03:24:05.073Z,81.10
2017-10-31T03:26:33.227Z,81.90
2017-10-31T03:29:01.367Z,82.90
2017-10-31T03:31:29.497Z,82.40
2017-10-31T03:33:57.622Z,80.40
2017-10-31T03:36:25.939Z,79.00
2017-10-31T03:38:54.091Z,80.10
2017-10-31T03:41:23.038Z,81.70
2017-10-31T03:43:51.179Z,81.60
2017-10-31T03:46:19.316Z,79.70
2017-10-31T03:48:47.449Z,81.00
2017-10-31T03:51:15.604Z,82.00
2017-10-31T03:53:43.810Z,80.10
2017-10-31T03:56:12.056Z,81.00
2017-10-31T03:58:40.952Z,83.80
2017-10-31T04:01:09.175Z,83.70
2017-10-31T04:03:38.077Z,81.90
2017-10-31T04:06:06.225Z,81.70
2017-10-31T04:08:34.391Z,79.90
2017-10-31T04:11:02.553Z,79.60
2017-10-31T04:13:30.669Z,82.30
2017-10-31T04:15:58.849Z,83.10
2017-10-31T04:18:26.980Z,81.20
2017-10-31T04:20:55.128Z,81.20
2017-10-31T04:23:23.456Z,79.30
2017-10-31T04:25:52.544Z,77.90
2017-10-31T04:28:20.701Z,77.90
2017-10-31T04:30:48.874Z,79.00
2017-10-31T04:33:17.090Z,81.60
2017-10-31T04:35:46.016Z,80.20
2017-10-31T04:38:14.155Z,80.20
2017-10-31T04:40:42.325Z,79.50
2017-10-31T04:43:10.530Z,79.20
2017-10-31T04:45:38.692Z,79.00
2017-10-31T04:48:06.858Z,80.80
2017-10-31T04:50:35.019Z,81.80
2017-10-31T04:53:03.136Z,80.30
2017-10-31T04:55:31.301Z,79.50
2017-10-31T04:57:59.488Z,80.60
2017-10-31T05:00:27.603Z,82.40
2017-10-31T05:02:56.556Z,79.00
2017-10-31T05:05:24.870Z,79.00
2017-10-31T05:07:53.004Z,81.20
2017-10-31T05:10:21.243Z,82.70
2017-10-31T05:12:49.349Z,83.70
2017-10-31T05:15:17.533Z,83.90
2017-10-31T05:17:45.688Z,85.30
2017-10-31T05:20:13.924Z,82.80
2017-10-31T05:22:42.164Z,83.20
2017-10-31T05:25:11.125Z,83.70
2017-10-31T05:27:39.279Z,83.70
2017-10-31T05:30:07.483Z,82.10
2017-10-31T05:32:36.447Z,81.70
2017-10-31T05:35:04.590Z,81.70
2017-10-31T05:37:32.813Z,81.80
2017-10-31T05:40:00.990Z,80.90
2017-10-31T05:42:29.868Z,81.20
2017-10-31T05:44:58.228Z,81.20
2017-10-31T05:47:26.578Z,81.60
2017-10-31T05:49:55.513Z,81.30
2017-10-31T05:52:23.936Z,81.20
2017-10-31T05:54:52.129Z,82.40
2017-10-31T05:57:21.005Z,83.70
2017-10-31T05:59:49.236Z,83.60
2017-10-31T06:02:17.419Z,81.40
2017-10-31T06:04:45.673Z,80.60
2017-10-31T06:07:14.679Z,79.50
2017-10-31T06:09:43.665Z,79.50
2017-10-31T06:12:12.069Z,79.80
2017-10-31T06:14:41.195Z,81.60
2017-10-31T06:17:10.412Z,82.00
2017-10-31T06:19:38.573Z,81.90
2017-10-31T06:22:12.516Z,81.70
2017-10-31T06:24:46.259Z,82.20
2017-10-31T06:27:20.852Z,79.70
2017-10-31T06:29:54.921Z,79.70
2017-10-31T06:32:23.124Z,78.40
2017-10-31T06:34:51.299Z,77.80
2017-10-31T06:37:19.525Z,78.40
2017-10-31T06:39:48.506Z,80.90
2017-10-31T06:42:17.404Z,82.50
2017-10-31T06:44:46.329Z,83.40
2017-10-31T06:47:14.601Z,83.30
2017-10-31T06:49:42.780Z,84.20
2017-10-31T06:52:10.919Z,85.60
2017-10-31T06:54:39.806Z,82.80
2017-10-31T06:57:08.988Z,84.60
2017-10-31T06:59:37.905Z,85.10
2017-10-31T07:02:06.082Z,85.00
2017-10-31T07:04:34.246Z,82.80
2017-10-31T07:07:02.387Z,81.40
2017-10-31T07:09:31.171Z,80.20
2017-10-31T07:11:59.343Z,79.00
2017-10-31T07:14:27.573Z,78.50
2017-10-31T07:16:55.786Z,78.00
2017-10-31T07:19:24.012Z,77.50
2017-10-31T07:21:52.185Z,77.40
2017-10-31T07:24:20.485Z,77.50
2017-10-31T07:26:48.730Z,78.00
2017-10-31T07:29:16.946Z,77.80
2017-10-31T07:31:45.933Z,80.70
2017-10-31T07:34:14.117Z,80.60
2017-10-31T07:36:42.413Z,80.60
2017-10-31T07:39:11.325Z,81.20
2017-10-31T07:41:39.485Z,81.10
2017-10-31T07:44:08.522Z,83.00
2017-10-31T07:46:38.044Z,82.90
2017-10-31T07:49:06.272Z,83.60
2017-10-31T07:51:34.991Z,84.20
2017-10-31T07:54:03.359Z,83.60
2017-10-31T07:56:31.533Z,83.40
2017-10-31T07:58:59.704Z,83.30
2017-10-31T08:01:27.896Z,82.50
2017-10-31T08:03:56.318Z,82.50
2017-10-31T08:06:25.242Z,81.00
2017-10-31T08:08:53.397Z,81.00
2017-10-31T08:11:22.388Z,81.80
2017-10-31T08:13:50.622Z,81.80
2017-10-31T08:16:18.812Z,80.70
2017-10-31T08:18:46.939Z,80.40
2017-10-31T08:21:15.193Z,81.40
2017-10-31T08:23:43.366Z,81.00
2017-10-31T08:26:11.544Z,81.40
2017-10-31T08:28:39.798Z,80.70
2017-10-31T08:31:08.010Z,81.50
2017-10-31T08:33:36.129Z,81.90
2017-10-31T08:36:05.223Z,82.00
2017-10-31T08:38:33.375Z,82.00
2017-10-31T08:41:01.645Z,81.90
2017-10-31T08:43:29.822Z,83.70
2017-10-31T08:45:58.142Z,83.10
2017-10-31T08:48:26.810Z,83.00
2017-10-31T08:50:54.962Z,83.40
2017-10-31T08:53:23.288Z,84.10
2017-10-31T08:55:51.561Z,84.10
2017-10-31T08:58:19.731Z,84.00
2017-10-31T09:00:47.932Z,83.50
2017-10-31T09:03:16.237Z,83.40
2017-10-31T09:05:44.498Z,83.50
2017-10-31T09:08:12.802Z,84.00
2017-10-31T09:10:41.113Z,84.10
2017-10-31T09:13:09.286Z,83.50
2017-10-31T09:15:37.544Z,83.30
2017-10-31T09:18:06.502Z,82.90
2017-10-31T09:20:35.560Z,84.70
2017-10-31T09:23:03.730Z,84.60
2017-10-31T09:25:31.941Z,84.00
2017-10-31T09:28:00.189Z,82.70
2017-10-31T09:30:28.319Z,82.00
2017-10-31T09:32:57.262Z,80.60
2017-10-31T09:35:25.543Z,80.50
2017-10-31T09:37:53.718Z,79.90
2017-10-31T09:40:22.651Z,77.30
2017-10-31T09:45:26.158Z,78.50
2017-10-31T09:47:54.381Z,79.60
2017-10-31T09:50:22.876Z,78.30
2017-10-31T09:52:51.800Z,77.20
2017-10-31T09:55:19.981Z,76.40
2017-10-31T09:57:48.986Z,75.10
2017-10-31T10:00:17.890Z,75.20
2017-10-31T10:02:46.829Z,74.60
2017-10-31T10:05:15.716Z,74.60
2017-10-31T10:07:43.953Z,74.60
2017-10-31T10:10:12.152Z,75.80
2017-10-31T10:12:40.278Z,74.80
2017-10-31T10:15:08.473Z,74.40
2017-10-31T10:17:37.501Z,74.70
2017-10-31T10:20:05.648Z,74.70
2017-10-31T10:22:34.562Z,76.80
2017-10-31T10:25:02.873Z,76.70
2017-10-31T10:27:31.016Z,77.50
2017-10-31T10:29:59.157Z,78.30
2017-10-31T10:32:28.096Z,76.80
2017-10-31T10:34:57.027Z,75.70
2017-10-31T10:37:26.288Z,75.60
2017-10-31T10:39:54.440Z,76.30
2017-10-31T10:42:22.735Z,75.90
2017-10-31T10:44:51.068Z,76.20
2017-10-31T10:47:19.279Z,76.20
2017-10-31T10:49:47.605Z,76.30
2017-10-31T10:52:15.823Z,76.60
2017-10-31T10:54:44.810Z,77.30
2017-10-31T10:57:12.956Z,77.20
2017-10-31T10:59:41.339Z,76.80
2017-10-31T11:02:09.516Z,76.60
2017-10-31T11:04:37.790Z,76.90
2017-10-31T11:07:06.009Z,77.30
2017-10-31T11:09:34.220Z,76.40
2017-10-31T11:12:03.121Z,75.50
2017-10-31T11:14:31.370Z,75.50
2017-10-31T11:16:59.503Z,75.70
2017-10-31T11:19:27.664Z,75.40
2017-10-31T11:21:55.824Z,74.00
2017-10-31T11:24:23.984Z,73.50
2017-10-31T11:26:52.943Z,75.20
2017-10-31T11:29:21.064Z,75.10
2017-10-31T11:31:49.245Z,74.50
2017-10-31T11:34:17.424Z,74.40
2017-10-31T11:36:45.623Z,75.60
2017-10-31T11:39:13.790Z,74.40
2017-10-31T11:41:42.045Z,73.60
2017-10-31T11:44:11.113Z,74.00
2017-10-31T11:46:40.059Z,74.10
2017-10-31T11:49:08.270Z,74.00
2017-10-31T11:51:37.439Z,74.10
2017-10-31T11:54:06.511Z,73.80
2017-10-31T11:56:34.637Z,74.30
2017-10-31T11:59:02.945Z,73.10
2017-10-31T12:01:31.249Z,73.70
2017-10-31T12:03:59.404Z,72.70
2017-10-31T12:06:27.629Z,71.20
2017-10-31T12:08:55.847Z,71.50
2017-10-31T12:11:23.999Z,70.70
2017-10-31T12:13:52.848Z,69.00
2017-10-31T12:16:21.087Z,69.30
2017-10-31T12:18:49.221Z,68.40
2017-10-31T12:21:18.162Z,68.00
2017-10-31T12:23:46.368Z,68.00
2017-10-31T12:26:14.565Z,64.00
2017-10-31T12:28:43.514Z,59.20
2017-10-31T12:31:11.739Z,59.20
2017-10-31T12:33:41.492Z,58.20
2017-10-31T12:36:09.639Z,58.00
2017-10-31T12:38:37.850Z,57.40
2017-10-31T12:41:06.005Z,58.30
2017-10-31T12:43:34.179Z,55.80
2017-10-31T12:46:03.993Z,58.00
2017-10-31T12:48:32.144Z,57.90
2017-10-31T12:51:00.568Z,57.70
2017-10-31T12:53:28.801Z,57.10
2017-10-31T12:55:56.969Z,57.60
2017-10-31T12:58:25.150Z,58.00
2017-10-31T13:00:53.350Z,56.80
2017-10-31T13:03:21.497Z,57.10
2017-10-31T13:05:49.780Z,57.80
2017-10-31T13:08:17.973Z,57.30
2017-10-31T13:10:46.135Z,57.10
2017-10-31T13:13:14.304Z,57.60
2017-10-31T13:15:42.473Z,56.60
2017-10-31T13:18:10.609Z,58.00
2017-10-31T13:20:39.570Z,57.30
2017-10-31T13:23:07.742Z,57.30
2017-10-31T13:25:35.882Z,57.10
2017-10-31T13:28:05.120Z,56.60
2017-10-31T13:30:33.643Z,56.90
2017-10-31T13:33:03.937Z,56.20
2017-10-31T13:35:32.423Z,56.20
2017-10-31T13:38:00.882Z,55.50
2017-10-31T13:40:29.547Z,56.30
2017-10-31T13:42:58.098Z,55.90
2017-10-31T13:45:26.288Z,55.10
2017-10-31T13:47:55.094Z,55.30
2017-10-31T13:50:23.368Z,55.70
2017-10-31T13:52:51.570Z,54.10
2017-10-31T13:55:20.709Z,55.20
2017-10-31T13:57:48.883Z,55.40
2017-10-31T14:00:18.618Z,52.70
2017-10-31T14:02:47.900Z,52.80
2017-10-31T14:05:17.551Z,52.80
2017-10-31T14:07:46.796Z,54.40
2017-10-31T14:10:15.330Z,54.90
2017-10-31T14:12:44.138Z,54.30
2017-10-31T14:15:12.391Z,53.60
2017-10-31T14:17:40.621Z,52.10
2017-10-31T14:20:09.126Z,52.60
2017-10-31T14:22:38.145Z,51.60
2017-10-31T14:25:06.400Z,51.60
2017-10-31T14:27:34.661Z,46.80
2017-10-31T14:30:02.961Z,43.00
2017-10-31T14:32:35.223Z,38.50
2017-10-31T14:35:03.896Z,38.00
2017-10-31T14:37:32.858Z,35.70
2017-10-31T14:40:01.126Z,35.70
2017-10-31T14:42:30.364Z,33.20
2017-10-31T14:45:00.052Z,32.20
2017-10-31T14:47:28.276Z,32.20
2017-10-31T14:49:56.547Z,31.70
2017-10-31T14:52:26.712Z,34.50
2017-10-31T14:54:54.873Z,34.50
2017-10-31T14:57:23.058Z,36.40
2017-10-31T14:59:51.315Z,39.00
2017-10-31T15:02:19.550Z,40.50
2017-10-31T15:04:48.502Z,45.10
2017-10-31T15:07:16.727Z,45.10
2017-10-31T15:09:48.824Z,47.60
2017-10-31T15:12:17.109Z,47.50
2017-10-31T15:14:45.333Z,48.20
2017-10-31T15:17:13.497Z,49.70
2017-10-31T15:19:41.777Z,50.30
2017-10-31T15:22:09.996Z,51.60
2017-10-31T15:24:38.204Z,51.90
2017-10-31T15:27:06.443Z,51.90
2017-10-31T15:29:34.639Z,51.60
2017-10-31T15:32:02.926Z,52.50
2017-10-31T15:34:31.138Z,52.50
2017-10-31T15:37:00.803Z,53.60
2017-10-31T15:39:29.261Z,53.00
2017-10-31T15:41:57.739Z,55.00
2017-10-31T15:44:27.499Z,55.40
2017-10-31T15:46:56.499Z,55.40
2017-10-31T15:49:24.729Z,55.40
2017-10-31T15:51:53.452Z,56.90
2017-10-31T15:54:22.492Z,60.80
2017-10-31T15:56:50.695Z,60.80
2017-10-31T16:01:53.320Z,66.00
2017-10-31T16:04:21.490Z,65.50
2017-10-31T16:06:49.673Z,64.10
2017-10-31T16:09:19.195Z,63.90
2017-10-31T16:11:47.410Z,64.10
2017-10-31T16:14:16.379Z,68.50
2017-10-31T16:16:44.668Z,68.40
2017-10-31T16:19:13.593Z,72.20
2017-10-31T16:21:41.838Z,72.20
2017-10-31T16:24:10.786Z,74.80
2017-10-31T16:26:39.140Z,74.80
2017-10-31T16:29:07.310Z,74.70
2017-10-31T16:31:35.490Z,73.50
2017-10-31T16:34:03.800Z,74.40
2017-10-31T16:36:31.985Z,76.00
2017-10-31T16:39:00.217Z,77.20
2017-10-31T16:41:28.578Z,77.40
2017-10-31T16:43:56.916Z,76.20
2017-10-31T16:46:25.119Z,76.70
2017-10-31T16:48:53.319Z,77.00
2017-10-31T16:51:21.669Z,77.60
2017-10-31T16:53:49.877Z,76.40
2017-10-31T16:56:18.138Z,76.10
2017-10-31T16:58:46.362Z,77.50
2017-10-31T17:01:14.581Z,76.70
2017-10-31T17:03:43.480Z,79.10
2017-10-31T17:06:11.779Z,79.10
2017-10-31T17:08:40.078Z,78.10
2017-10-31T17:11:09.485Z,75.60
2017-10-31T17:13:38.681Z,74.90
2017-10-31T17:16:07.689Z,73.10
2017-10-31T17:18:35.999Z,73.00
2017-10-31T17:21:04.191Z,72.50
2017-10-31T17:23:33.104Z,72.30
2017-10-31T17:26:01.389Z,72.20
2017-10-31T17:28:29.566Z,71.70
2017-10-31T17:30:57.734Z,74.10
2017-10-31T17:33:25.989Z,74.30
2017-10-31T17:35:54.997Z,72.80
2017-10-31T17:38:23.172Z,72.70
2017-10-31T17:40:51.391Z,74.60
2017-10-31T17:43:19.678Z,76.00
2017-10-31T17:45:47.895Z,74.80
2017-10-31T17:48:16.096Z,74.60
2017-10-31T17:50:44.461Z,74.20
2017-10-31T17:53:13.833Z,74.40
2017-10-31T17:55:42.006Z,74.40
2017-10-31T17:58:10.180Z,74.00
2017-10-31T18:00:38.382Z,74.40
2017-10-31T18:03:06.622Z,76.90
2017-10-31T18:05:34.797Z,78.60
2017-10-31T18:08:03.012Z,78.90
2017-10-31T18:10:31.206Z,78.70
2017-10-31T18:12:59.376Z,77.10
2017-10-31T18:15:27.604Z,77.60
2017-10-31T18:17:55.784Z,76.30
2017-10-31T18:20:23.960Z,75.90
2017-10-31T18:22:52.124Z,75.00
2017-10-31T18:25:20.299Z,75.70
2017-10-31T18:27:48.520Z,75.70
2017-10-31T18:30:16.801Z,75.20
2017-10-31T18:32:45.011Z,74.80
2017-10-31T18:35:13.184Z,77.50
2017-10-31T18:37:41.368Z,78.80
2017-10-31T18:40:09.536Z,79.30
2017-10-31T18:42:38.489Z,80.20
2017-10-31T18:45:08.174Z,79.40
2017-10-31T18:47:36.346Z,79.50
2017-10-31T18:50:04.554Z,78.60
2017-10-31T18:52:33.627Z,76.70
2017-10-31T18:55:01.832Z,76.80
2017-10-31T18:57:30.831Z,78.10
2017-10-31T18:59:59.101Z,78.00
2017-10-31T19:02:28.056Z,77.20
2017-10-31T19:04:56.247Z,77.20
2017-10-31T19:07:24.411Z,78.20
2017-10-31T19:09:52.616Z,79.70
2017-10-31T19:12:21.550Z,78.50
2017-10-31T19:14:50.509Z,77.50
2017-10-31T19:17:18.689Z,77.40
2017-10-31T19:19:46.874Z,78.20
2017-10-31T19:22:15.068Z,78.40
2017-10-31T19:24:43.244Z,78.40
2017-10-31T19:27:12.199Z,78.20
2017-10-31T19:29:40.397Z,78.10
2017-10-31T19:32:08.596Z,79.80
2017-10-31T19:34:37.547Z,80.80
2017-10-31T19:37:05.728Z,80.80
2017-10-31T19:39:35.620Z,78.90
2017-10-31T19:42:03.795Z,78.80
2017-10-31T19:44:31.978Z,80.20
2017-10-31T19:47:00.136Z,79.00
2017-10-31T19:49:28.349Z,78.20
2017-10-31T19:51:56.527Z,78.30
2017-10-31T19:54:25.471Z,78.90
2017-10-31T19:56:54.042Z,78.90
2017-10-31T19:59:22.250Z,79.30
2017-10-31T20:01:50.431Z,79.20
2017-10-31T20:04:18.604Z,78.90
2017-10-31T20:06:46.778Z,78.90
2017-10-31T20:09:14.994Z,78.30
2017-10-31T20:11:44.909Z,77.70
2017-10-31T20:14:13.916Z,77.70
2017-10-31T20:16:42.116Z,78.80
2017-10-31T20:19:10.281Z,80.00
2017-10-31T20:21:38.510Z,78.70
2017-10-31T20:24:07.528Z,77.10
2017-10-31T20:26:35.712Z,77.10
2017-10-31T20:29:03.884Z,76.40
2017-10-31T20:31:32.083Z,76.80
2017-10-31T20:34:00.252Z,75.80
2017-10-31T20:36:28.405Z,76.10
2017-10-31T20:38:56.600Z,76.30
2017-10-31T20:41:24.799Z,76.10
2017-10-31T20:43:52.994Z,75.70
2017-10-31T20:46:21.159Z,75.30
2017-10-31T20:48:50.135Z,75.20
2017-10-31T20:51:18.290Z,75.10
2017-10-31T20:53:46.522Z,75.90
2017-10-31T20:56:15.470Z,75.30
2017-10-31T20:58:43.672Z,75.20
2017-10-31T21:01:11.871Z,75.10
2017-10-31T21:03:40.063Z,74.60
2017-10-31T21:06:08.274Z,74.50
2017-10-31T21:08:36.464Z,75.00
2017-10-31T21:11:05.415Z,74.50
2017-10-31T21:13:34.368Z,74.80
2017-10-31T21:16:02.532Z,74.70
2017-10-31T21:18:30.756Z,74.80
2017-10-31T21:20:58.906Z,74.70
2017-10-31T21:23:27.122Z,74.70
2017-10-31T21:25:56.091Z,75.80
2017-10-31T21:28:24.275Z,75.80
2017-10-31T21:30:52.438Z,76.00
2017-10-31T21:33:20.731Z,75.40
2017-10-31T21:35:48.926Z,75.20
2017-10-31T21:38:17.106Z,75.00
2017-10-31T21:40:46.022Z,74.50
2017-10-31T21:43:14.201Z,74.50
2017-10-31T21:45:42.371Z,73.80
2017-10-31T21:48:10.538Z,73.20
2017-10-31T21:50:38.722Z,73.40
2017-10-31T21:53:06.893Z,73.30
2017-10-31T21:55:35.098Z,73.20
2017-10-31T21:58:04.013Z,73.50
2017-10-31T22:00:32.961Z,73.90
2017-10-31T22:03:01.901Z,74.00
2017-10-31T22:05:30.887Z,73.50
2017-10-31T22:07:59.864Z,72.50
2017-10-31T22:10:28.084Z,72.50
2017-10-31T22:12:56.269Z,73.00
2017-10-31T22:15:24.463Z,74.60
2017-10-31T22:17:52.637Z,74.90
2017-10-31T22:20:20.832Z,75.30
2017-10-31T22:22:49.045Z,75.40
2017-10-31T22:25:17.250Z,74.90
2017-10-31T22:27:45.427Z,75.10
2017-10-31T22:30:13.596Z,75.20
2017-10-31T22:32:41.743Z,75.30
2017-10-31T22:35:09.956Z,74.60
2017-10-31T22:37:38.148Z,74.30
2017-10-31T22:40:06.394Z,74.30
2017-10-31T22:42:34.580Z,74.10
2017-10-31T22:45:03.521Z,73.60
2017-10-31T22:47:31.669Z,73.50
2017-10-31T22:50:00.644Z,74.10
2017-10-31T22:52:28.793Z,74.00
2017-10-31T22:54:57.006Z,74.60
2017-10-31T22:57:25.969Z,74.20
2017-10-31T22:59:54.117Z,74.80
2017-10-31T23:02:22.288Z,74.50
2017-10-31T23:04:50.443Z,74.50
2017-10-31T23:07:19.382Z,74.00
2017-10-31T23:09:47.565Z,74.00
2017-10-31T23:12:15.744Z,74.20
2017-10-31T23:14:43.941Z,73.70
2017-10-31T23:17:12.886Z,75.10
2017-10-31T23:19:41.048Z,75.00
2017-10-31T23:22:09.200Z,75.20
2017-10-31T23:24:37.385Z,75.00
2017-10-31T23:27:05.597Z,76.30
2017-10-31T23:29:33.782Z,76.60
2017-10-31T23:32:01.941Z,76.20
2017-10-31T23:34:30.164Z,75.60
2017-10-31T23:36:59.166Z,75.60
2017-10-31T23:39:27.334Z,75.50
2017-10-31T23:41:55.617Z,76.50
2017-10-31T23:44:23.787Z,76.30
2017-10-31T23:46:51.964Z,75.80
2017-10-31T23:49:20.124Z,75.80
2017-10-31T23:51:48.383Z,75.00
2017-10-31T23:54:17.320Z,75.00
2017-10-31T23:56:45.523Z,75.00
2017-10-31T23:59:13.696Z,75.00
